createdAt,value
2024-01-03T00:01:31.123Z,2.23
2024-01-03T00:04:00.159Z,2.37
2024-01-03T00:06:34.839Z,3.03
2024-01-03T00:09:04.340Z,2.60
2024-01-03T00:11:33.359Z,3.13
2024-01-03T00:14:28.640Z,2.80
2024-01-03T00:17:01.939Z,3.43
2024-01-03T00:19:30.155Z,2.93
2024-01-03T00:22:00.274Z,2.90
2024-01-03T00:24:29.053Z,2.73
2024-01-03T00:26:57.616Z,3.17
2024-01-03T00:29:55.104Z,2.60
2024-01-03T00:32:25.477Z,2.37
2024-01-03T00:34:55.593Z,3.03
2024-01-03T00:37:30.577Z,2.77
2024-01-03T00:39:59.558Z,2.63
2024-01-03T00:42:27.937Z,3.20
2024-01-03T00:44:56.067Z,2.87
2024-01-03T00:47:25.109Z,2.60
2024-01-03T00:49:53.123Z,3.53
2024-01-03T00:52:21.673Z,2.50
2024-01-03T00:54:51.707Z,3.17
2024-01-03T00:57:19.748Z,2.73
2024-01-03T00:59:48.022Z,3.13
2024-01-03T01:02:16.318Z,2.90
2024-01-03T01:04:44.409Z,2.80
2024-01-03T01:07:13.452Z,3.00
2024-01-03T01:09:41.460Z,3.83
2024-01-03T01:12:11.232Z,2.73
2024-01-03T01:14:39.392Z,3.27
2024-01-03T01:17:09.377Z,3.00
2024-01-03T01:19:37.519Z,2.60
2024-01-03T01:22:05.450Z,3.30
2024-01-03T01:24:33.424Z,3.30
2024-01-03T01:27:01.457Z,3.53
2024-01-03T01:29:30.960Z,3.03
2024-01-03T01:31:58.981Z,3.17
2024-01-03T01:34:27.009Z,2.83
2024-01-03T01:36:55.290Z,2.93
2024-01-03T01:39:23.210Z,3.20
2024-01-03T01:41:51.424Z,3.07
2024-01-03T01:44:19.486Z,3.23
2024-01-03T01:46:49.081Z,3.40
2024-01-03T01:49:19.478Z,3.17
2024-01-03T01:51:48.606Z,3.20
2024-01-03T01:54:18.742Z,2.33
2024-01-03T01:56:47.644Z,2.77
2024-01-03T01:59:17.285Z,3.20
2024-01-03T02:01:45.535Z,2.67
2024-01-03T02:04:16.271Z,3.23
2024-01-03T02:06:45.267Z,3.10
2024-01-03T02:09:13.329Z,3.20
2024-01-03T02:11:46.493Z,2.33
2024-01-03T02:14:14.582Z,3.00
2024-01-03T02:16:42.889Z,2.30
2024-01-03T02:19:11.397Z,3.13
2024-01-03T02:21:41.027Z,2.57
2024-01-03T02:24:09.132Z,3.37
2024-01-03T02:26:37.376Z,2.67
2024-01-03T02:29:05.414Z,2.93
2024-01-03T02:31:33.335Z,3.50
2024-01-03T02:34:01.335Z,2.97
2024-01-03T02:36:29.645Z,3.50
2024-01-03T02:39:02.888Z,3.33
2024-01-03T02:41:31.033Z,2.90
2024-01-03T02:43:59.172Z,3.27
2024-01-03T02:46:30.391Z,2.87
2024-01-03T02:48:58.752Z,2.50
2024-01-03T02:51:27.078Z,2.77
2024-01-03T02:53:55.238Z,2.60
2024-01-03T02:56:25.061Z,2.90
2024-01-03T02:58:54.175Z,3.20
2024-01-03T03:01:22.679Z,3.87
2024-01-03T03:03:51.862Z,3.37
2024-01-03T03:06:20.228Z,3.07
2024-01-03T03:08:48.388Z,4.57
2024-01-03T03:11:16.423Z,4.07
2024-01-03T03:13:45.800Z,3.70
2024-01-03T03:16:13.779Z,3.80
2024-01-03T03:18:42.289Z,3.70
2024-01-03T03:21:11.570Z,3.60
2024-01-03T03:23:39.677Z,3.30
2024-01-03T03:26:07.692Z,3.57
2024-01-03T03:28:35.726Z,4.23
2024-01-03T03:31:06.411Z,3.53
2024-01-03T03:33:34.864Z,3.97
2024-01-03T03:36:03.107Z,3.93
2024-01-03T03:38:31.342Z,3.63
2024-01-03T03:40:59.302Z,3.50
2024-01-03T03:43:27.264Z,3.87
2024-01-03T03:45:55.250Z,4.50
2024-01-03T03:48:25.073Z,3.20
2024-01-03T03:50:53.443Z,3.70
2024-01-03T03:53:21.652Z,3.30
2024-01-03T03:55:49.708Z,3.33
2024-01-03T03:58:18.190Z,3.47
2024-01-03T04:00:46.233Z,3.87
2024-01-03T04:03:14.248Z,2.97
2024-01-03T04:05:44.018Z,4.27
2024-01-03T04:08:12.618Z,3.43
2024-01-03T04:10:40.929Z,3.67
2024-01-03T04:13:09.094Z,3.93
2024-01-03T04:15:37.115Z,3.53
2024-01-03T04:18:06.232Z,3.90
2024-01-03T04:20:34.688Z,4.10
2024-01-03T04:23:04.095Z,3.53
2024-01-03T04:25:32.210Z,4.13
2024-01-03T04:28:00.242Z,4.20
2024-01-03T04:30:28.360Z,4.03
2024-01-03T04:32:56.667Z,3.70
2024-01-03T04:35:25.709Z,3.30
2024-01-03T04:37:55.210Z,3.50
2024-01-03T04:40:24.736Z,3.33
2024-01-03T04:42:52.806Z,3.97
2024-01-03T04:45:20.923Z,3.60
2024-01-03T04:47:49.176Z,3.50
2024-01-03T04:50:18.422Z,3.40
2024-01-03T04:52:46.590Z,4.50
2024-01-03T04:55:14.679Z,3.10
2024-01-03T04:57:44.045Z,2.43
2024-01-03T05:00:13.327Z,2.67
2024-01-03T05:02:41.355Z,2.53
2024-01-03T05:05:09.591Z,2.70
2024-01-03T05:07:37.761Z,3.20
2024-01-03T05:10:09.949Z,2.50
2024-01-03T05:12:38.323Z,2.43
2024-01-03T05:15:08.994Z,3.27
2024-01-03T05:17:37.200Z,2.40
2024-01-03T05:20:09.909Z,2.07
2024-01-03T05:22:38.100Z,2.37
2024-01-03T05:25:08.255Z,2.30
2024-01-03T05:27:36.798Z,2.63
2024-01-03T05:30:05.659Z,1.90
2024-01-03T05:32:35.405Z,1.63
2024-01-03T05:35:03.715Z,2.10
2024-01-03T05:37:31.661Z,1.93
2024-01-03T05:39:59.987Z,1.77
2024-01-03T05:42:28.189Z,1.80
2024-01-03T05:44:56.836Z,2.10
2024-01-03T05:47:25.075Z,2.40
2024-01-03T05:49:54.521Z,1.57
2024-01-03T05:52:22.826Z,2.10
2024-01-03T05:54:50.838Z,1.53
2024-01-03T05:57:19.109Z,1.90
2024-01-03T05:59:47.103Z,1.87
2024-01-03T06:02:15.325Z,1.80
2024-01-03T06:04:45.036Z,1.70
2024-01-03T06:07:14.434Z,1.90
2024-01-03T06:09:42.491Z,2.07
2024-01-03T06:12:13.099Z,2.20
2024-01-03T06:14:43.549Z,2.87
2024-01-03T06:17:13.829Z,2.53
2024-01-03T06:19:42.081Z,2.17
2024-01-03T06:22:16.513Z,2.03
2024-01-03T06:24:46.089Z,2.10
2024-01-03T06:27:14.150Z,2.37
2024-01-03T06:29:46.411Z,2.33
2024-01-03T06:32:17.732Z,1.90
2024-01-03T06:34:45.833Z,1.93
2024-01-03T06:37:13.917Z,2.07
2024-01-03T06:39:42.015Z,1.50
2024-01-03T06:42:11.400Z,1.70
2024-01-03T06:44:39.416Z,2.13
2024-01-03T06:47:07.452Z,1.80
2024-01-03T06:49:35.546Z,1.57
2024-01-03T06:52:04.005Z,1.80
2024-01-03T06:54:32.386Z,2.40
2024-01-03T06:57:00.863Z,2.00
2024-01-03T06:59:30.230Z,1.50
2024-01-03T07:01:58.982Z,2.00
2024-01-03T07:04:27.171Z,1.87
2024-01-03T07:06:55.185Z,2.37
2024-01-03T07:09:23.230Z,1.83
2024-01-03T07:11:51.546Z,1.80
2024-01-03T07:14:19.699Z,2.07
2024-01-03T07:16:51.533Z,1.83
2024-01-03T07:19:20.246Z,2.73
2024-01-03T07:21:48.739Z,2.33
2024-01-03T07:24:16.821Z,2.23
2024-01-03T07:26:45.143Z,2.23
2024-01-03T07:29:13.200Z,2.47
2024-01-03T07:31:41.193Z,2.53
2024-01-03T07:34:12.327Z,2.20
2024-01-03T07:36:41.134Z,1.80
2024-01-03T07:39:10.951Z,2.30
2024-01-03T07:41:39.897Z,2.20
2024-01-03T07:44:08.275Z,2.60
2024-01-03T07:46:36.601Z,2.80
2024-01-03T07:49:04.808Z,2.87
2024-01-03T07:51:36.093Z,2.30
2024-01-03T07:54:04.897Z,2.80
2024-01-03T07:56:33.091Z,2.50
2024-01-03T07:59:01.411Z,2.43
2024-01-03T08:01:29.534Z,3.00
2024-01-03T08:03:57.746Z,2.80
2024-01-03T08:06:26.299Z,2.90
2024-01-03T08:08:55.780Z,2.60
2024-01-03T08:11:24.073Z,2.43
2024-01-03T08:13:52.780Z,2.60
2024-01-03T08:16:21.495Z,2.50
2024-01-03T08:18:49.683Z,2.37
2024-01-03T08:21:17.977Z,2.77
2024-01-03T08:23:46.126Z,3.27
2024-01-03T08:26:15.664Z,2.67
2024-01-03T08:28:46.926Z,2.67
2024-01-03T08:31:17.069Z,2.40
2024-01-03T08:33:45.460Z,2.53
2024-01-03T08:36:14.793Z,2.80
2024-01-03T08:38:44.197Z,2.63
2024-01-03T08:41:17.931Z,2.80
2024-01-03T08:43:47.130Z,2.37
2024-01-03T08:46:15.389Z,3.10
2024-01-03T08:48:44.894Z,2.40
2024-01-03T08:51:15.529Z,2.20
2024-01-03T08:53:44.061Z,2.87
2024-01-03T08:56:18.047Z,2.70
2024-01-03T08:58:48.445Z,2.23
2024-01-03T09:01:20.505Z,2.33
2024-01-03T09:03:49.919Z,2.50
2024-01-03T09:06:21.029Z,2.63
2024-01-03T09:08:52.276Z,2.57
2024-01-03T09:11:27.040Z,2.20
2024-01-03T09:13:58.492Z,2.27
2024-01-03T09:16:28.810Z,2.30
2024-01-03T09:18:57.135Z,2.97
2024-01-03T09:21:25.411Z,2.60
2024-01-03T09:23:53.899Z,2.30
2024-01-03T09:26:25.387Z,2.43
2024-01-03T09:28:53.865Z,2.00
2024-01-03T09:31:22.272Z,2.03
2024-01-03T09:33:50.614Z,2.03
2024-01-03T09:36:23.980Z,2.10
2024-01-03T09:38:55.336Z,1.87
2024-01-03T09:41:25.514Z,1.73
2024-01-03T09:43:56.014Z,2.53
2024-01-03T09:46:24.561Z,3.10
2024-01-03T09:48:52.931Z,2.57
2024-01-03T09:51:21.670Z,2.20
2024-01-03T09:53:53.656Z,2.27
2024-01-03T09:56:22.168Z,1.77
2024-01-03T09:58:51.813Z,2.40
2024-01-03T10:01:19.955Z,2.30
2024-01-03T10:03:48.167Z,2.37
2024-01-03T10:06:19.427Z,1.87
2024-01-03T10:09:00.314Z,2.40
2024-01-03T10:11:28.980Z,2.63
2024-01-03T10:14:17.296Z,1.97
2024-01-03T10:16:46.234Z,2.30
2024-01-03T10:19:15.833Z,2.10
2024-01-03T10:21:51.295Z,2.40
2024-01-03T10:24:20.136Z,2.13
2024-01-03T10:26:49.892Z,2.20
2024-01-03T10:29:20.486Z,2.17
2024-01-03T10:31:49.431Z,2.30
2024-01-03T10:34:24.513Z,2.77
2024-01-03T10:36:54.756Z,2.17
2024-01-03T10:39:23.152Z,1.87
2024-01-03T10:41:53.132Z,2.13
2024-01-03T10:44:23.627Z,2.37
2024-01-03T10:46:55.875Z,2.13
2024-01-03T10:49:24.817Z,2.33
2024-01-03T10:52:02.124Z,2.37
2024-01-03T10:54:36.963Z,2.27
2024-01-03T10:58:04.579Z,2.43
2024-01-03T11:00:49.697Z,2.60
2024-01-03T11:03:31.211Z,2.60
2024-01-03T11:06:08.916Z,2.50
2024-01-03T11:08:46.396Z,2.90
2024-01-03T11:11:15.413Z,2.97
2024-01-03T11:13:43.713Z,3.30
2024-01-03T11:16:40.222Z,2.90
2024-01-03T11:19:12.577Z,3.73
2024-01-03T11:21:45.355Z,4.10
2024-01-03T11:24:55.922Z,3.63
2024-01-03T11:27:26.511Z,3.83
2024-01-03T11:29:59.112Z,4.03
2024-01-03T11:32:34.696Z,3.67
2024-01-03T11:35:09.856Z,4.10
2024-01-03T11:37:42.473Z,3.33
2024-01-03T11:40:22.581Z,3.90
2024-01-03T11:42:59.043Z,3.80
2024-01-03T11:45:30.123Z,3.03
2024-01-03T11:48:03.754Z,3.10
2024-01-03T11:50:36.054Z,2.87
2024-01-03T11:53:10.308Z,3.10
2024-01-03T11:55:38.442Z,2.60
2024-01-03T11:58:06.730Z,2.80
2024-01-03T12:00:35.085Z,2.70
2024-01-03T12:03:04.907Z,2.83
2024-01-03T12:05:33.178Z,3.13
2024-01-03T12:08:01.777Z,2.77
2024-01-03T12:10:30.508Z,2.83
2024-01-03T12:12:58.826Z,2.30
2024-01-03T12:15:38.597Z,2.60
2024-01-03T12:18:18.153Z,2.73
2024-01-03T12:20:46.980Z,2.73
2024-01-03T12:23:17.003Z,2.67
2024-01-03T12:25:49.344Z,3.40
2024-01-03T12:28:20.839Z,3.30
2024-01-03T12:30:50.784Z,2.70
2024-01-03T12:33:20.828Z,3.27
2024-01-03T12:35:49.979Z,2.97
2024-01-03T12:38:18.431Z,2.97
2024-01-03T12:40:46.556Z,2.93
2024-01-03T12:43:17.321Z,2.90
2024-01-03T12:45:47.753Z,2.93
2024-01-03T12:48:15.870Z,3.40
2024-01-03T12:50:46.591Z,3.83
2024-01-03T12:53:14.785Z,4.53
2024-01-03T12:55:42.986Z,4.30
2024-01-03T12:58:11.258Z,3.17
2024-01-03T13:00:39.450Z,3.63
2024-01-03T13:03:08.377Z,3.43
2024-01-03T13:05:36.756Z,4.67
2024-01-03T13:08:09.016Z,4.20
2024-01-03T13:10:37.525Z,3.60
2024-01-03T13:13:06.383Z,4.50
2024-01-03T13:15:34.855Z,4.13
2024-01-03T13:18:03.132Z,4.07
2024-01-03T13:20:31.431Z,3.93
2024-01-03T13:22:59.934Z,3.73
2024-01-03T13:25:29.444Z,3.50
2024-01-03T13:27:57.472Z,3.13
2024-01-03T13:30:26.057Z,3.57
2024-01-03T13:32:54.367Z,3.20
2024-01-03T13:35:22.922Z,2.90
2024-01-03T13:37:51.397Z,2.07
2024-01-03T13:40:19.756Z,2.40
2024-01-03T13:42:49.256Z,1.90
2024-01-03T13:45:17.780Z,1.77
2024-01-03T13:47:47.472Z,2.10
2024-01-03T13:50:15.848Z,2.00
2024-01-03T13:52:44.165Z,1.60
2024-01-03T13:55:12.118Z,1.73
2024-01-03T13:57:41.655Z,1.40
2024-01-03T14:00:12.239Z,1.77
2024-01-03T14:02:40.799Z,1.73
2024-01-03T14:05:09.192Z,1.87
2024-01-03T14:07:37.880Z,1.43
2024-01-03T14:10:08.932Z,1.70
2024-01-03T14:12:37.016Z,2.30
2024-01-03T14:15:06.117Z,1.63
2024-01-03T14:17:35.654Z,1.53
2024-01-03T14:20:07.396Z,1.73
2024-01-03T14:22:35.545Z,1.03
2024-01-03T14:25:04.236Z,0.90
2024-01-03T14:27:32.526Z,1.00
2024-01-03T14:30:01.191Z,1.33
2024-01-03T14:32:29.552Z,1.37
2024-01-03T14:34:59.195Z,1.57
2024-01-03T14:37:29.629Z,1.00
2024-01-03T14:39:57.836Z,1.73
2024-01-03T14:42:27.820Z,1.43
2024-01-03T14:44:56.301Z,1.50
2024-01-03T14:47:47.402Z,1.10
2024-01-03T14:50:17.531Z,1.50
2024-01-03T14:52:45.648Z,1.50
2024-01-03T14:55:14.658Z,1.40
2024-01-03T14:57:42.670Z,1.47
2024-01-03T15:00:14.868Z,1.70
2024-01-03T15:02:48.690Z,1.70
2024-01-03T15:05:24.603Z,2.30
2024-01-03T15:07:52.735Z,2.50
2024-01-03T15:10:20.654Z,2.23
2024-01-03T15:12:48.579Z,2.47
2024-01-03T15:15:16.747Z,2.70
2024-01-03T15:17:46.360Z,2.30
2024-01-03T15:20:15.009Z,3.07
2024-01-03T15:22:46.710Z,3.13
2024-01-03T15:25:14.751Z,2.63
2024-01-03T15:27:42.977Z,2.33
2024-01-03T15:30:12.025Z,2.70
2024-01-03T15:32:41.424Z,2.10
2024-01-03T15:35:10.246Z,1.60
2024-01-03T15:37:38.363Z,1.90
2024-01-03T15:40:14.622Z,1.53
2024-01-03T15:42:44.068Z,1.97
2024-01-03T15:45:13.672Z,1.93
2024-01-03T15:47:42.002Z,1.30
2024-01-03T15:50:12.465Z,2.03
2024-01-03T15:52:41.668Z,1.40
2024-01-03T15:55:11.611Z,1.83
2024-01-03T15:57:43.033Z,2.03
2024-01-03T16:00:14.918Z,1.97
2024-01-03T16:02:44.583Z,2.00
2024-01-03T16:05:13.185Z,1.63
2024-01-03T16:07:41.768Z,1.53
2024-01-03T16:10:11.837Z,2.27
2024-01-03T16:12:39.857Z,1.73
2024-01-03T16:15:08.260Z,1.30
2024-01-03T16:17:37.860Z,1.50
2024-01-03T16:20:06.910Z,1.80
2024-01-03T16:22:34.989Z,2.00
2024-01-03T16:25:12.754Z,1.63
2024-01-03T16:27:50.516Z,1.77
2024-01-03T16:30:18.820Z,1.87
2024-01-03T16:32:49.059Z,2.50
2024-01-03T16:35:17.304Z,2.03
2024-01-03T16:37:46.679Z,2.13
2024-01-03T16:40:15.395Z,2.17
2024-01-03T16:42:44.851Z,2.50
2024-01-03T16:45:20.291Z,2.90
2024-01-03T16:47:48.692Z,2.60
2024-01-03T16:50:17.402Z,2.60
2024-01-03T16:52:46.396Z,2.80
2024-01-03T16:55:14.433Z,2.97
2024-01-03T16:57:42.376Z,2.43
2024-01-03T17:00:13.061Z,3.70
2024-01-03T17:02:41.445Z,3.00
2024-01-03T17:05:12.124Z,3.60
2024-01-03T17:07:41.556Z,3.33
2024-01-03T17:10:10.259Z,2.20
2024-01-03T17:12:38.609Z,2.30
2024-01-03T17:15:09.966Z,2.17
2024-01-03T17:17:41.662Z,2.47
2024-01-03T17:20:11.664Z,2.03
2024-01-03T17:22:42.346Z,1.93
2024-01-03T17:25:10.629Z,2.00
2024-01-03T17:27:39.248Z,1.47
2024-01-03T17:30:14.584Z,2.03
2024-01-03T17:32:46.051Z,2.23
2024-01-03T17:35:14.368Z,2.00
2024-01-03T17:37:42.610Z,2.17
2024-01-03T17:40:13.380Z,1.40
2024-01-03T17:42:42.349Z,1.30
2024-01-03T17:45:11.810Z,1.33
2024-01-03T17:47:40.594Z,1.00
2024-01-03T17:50:11.953Z,1.00
2024-01-03T17:52:39.959Z,1.00
2024-01-03T17:55:08.719Z,0.87
2024-01-03T17:57:37.086Z,1.20
2024-01-03T18:00:05.877Z,1.33
2024-01-03T18:02:33.972Z,0.90
2024-01-03T18:05:02.700Z,0.97
2024-01-03T18:07:32.378Z,1.27
2024-01-03T18:10:00.653Z,1.40
2024-01-03T18:12:28.786Z,1.00
2024-01-03T18:14:56.840Z,1.00
2024-01-03T18:17:25.378Z,1.40
2024-01-03T18:19:53.458Z,1.50
2024-01-03T18:22:22.675Z,1.60
2024-01-03T18:24:52.353Z,1.63
2024-01-03T18:27:20.674Z,1.40
2024-01-03T18:29:49.219Z,1.60
2024-01-03T18:32:18.725Z,1.87
2024-01-03T18:34:47.538Z,1.40
2024-01-03T18:37:16.082Z,1.50
2024-01-03T18:39:44.361Z,3.20
2024-01-03T18:42:14.207Z,1.90
2024-01-03T18:44:43.186Z,1.97
2024-01-03T18:47:11.673Z,1.70
2024-01-03T18:49:40.203Z,2.17
2024-01-03T18:52:09.140Z,1.57
2024-01-03T18:54:37.383Z,1.80
2024-01-03T18:57:06.108Z,2.37
2024-01-03T18:59:38.849Z,1.93
2024-01-03T19:02:09.581Z,2.50
2024-01-03T19:04:38.111Z,1.77
2024-01-03T19:07:06.645Z,1.20
2024-01-03T19:09:34.926Z,1.00
2024-01-03T19:12:03.211Z,0.60
2024-01-03T19:14:31.443Z,0.53
2024-01-03T19:17:01.226Z,0.80
2024-01-03T19:19:29.876Z,1.27
2024-01-03T19:21:58.223Z,1.40
2024-01-03T19:24:27.272Z,1.33
2024-01-03T19:26:55.887Z,1.13
2024-01-03T19:29:24.124Z,1.20
2024-01-03T19:31:52.369Z,0.60
2024-01-03T19:34:23.962Z,0.60
2024-01-03T19:36:52.779Z,0.70
2024-01-03T19:39:21.054Z,0.60
2024-01-03T19:41:49.408Z,0.70
2024-01-03T19:44:19.235Z,0.87
2024-01-03T19:46:50.446Z,1.03
2024-01-03T19:49:19.332Z,0.90
2024-01-03T19:51:49.470Z,0.90
2024-01-03T19:54:17.999Z,1.33
2024-01-03T19:56:48.493Z,0.90
2024-01-03T19:59:21.157Z,1.50
2024-01-03T20:01:51.273Z,1.70
2024-01-03T20:04:21.289Z,1.80
2024-01-03T20:06:54.218Z,1.20
2024-01-03T20:09:23.184Z,1.30
2024-01-03T20:11:53.111Z,1.30
2024-01-03T20:14:21.720Z,1.50
2024-01-03T20:16:50.538Z,1.43
2024-01-03T20:19:19.449Z,1.73
2024-01-03T20:21:48.853Z,1.40
2024-01-03T20:24:20.833Z,1.50
2024-01-03T20:26:50.969Z,1.53
2024-01-03T20:29:19.577Z,1.10
2024-01-03T20:31:47.925Z,0.80
2024-01-03T20:34:16.411Z,0.90
2024-01-03T20:36:45.499Z,0.80
2024-01-03T20:39:16.858Z,1.23
2024-01-03T20:41:47.595Z,0.97
2024-01-03T20:44:18.258Z,1.40
2024-01-03T20:46:50.351Z,1.70
2024-01-03T20:49:19.054Z,1.90
2024-01-03T20:51:47.799Z,1.50
2024-01-03T20:54:16.845Z,1.20
2024-01-03T20:56:47.667Z,1.50
2024-01-03T20:59:16.240Z,1.60
2024-01-03T21:01:50.517Z,1.27
2024-01-03T21:04:22.502Z,1.10
2024-01-03T21:06:51.145Z,1.53
2024-01-03T21:09:21.265Z,1.10
2024-01-03T21:11:53.997Z,1.10
2024-01-03T21:14:22.224Z,1.13
2024-01-03T21:16:50.252Z,1.47
2024-01-03T21:19:18.611Z,1.07
2024-01-03T21:21:47.000Z,1.23
2024-01-03T21:24:15.207Z,0.93
2024-01-03T21:26:43.710Z,1.27
2024-01-03T21:29:28.850Z,1.30
2024-01-03T21:31:59.559Z,1.23
2024-01-03T21:34:27.955Z,1.33
2024-01-03T21:36:56.212Z,1.50
2024-01-03T21:39:24.498Z,1.70
2024-01-03T21:41:53.526Z,1.47
2024-01-03T21:44:23.380Z,1.17
2024-01-03T21:46:51.550Z,1.30
2024-01-03T21:49:19.757Z,1.40
2024-01-03T21:51:47.894Z,1.27
2024-01-03T21:54:16.023Z,0.60
2024-01-03T21:56:44.356Z,0.60
2024-01-03T21:59:12.307Z,0.70
2024-01-03T22:01:41.683Z,0.80
2024-01-03T22:04:10.082Z,0.53
2024-01-03T22:06:38.268Z,0.90
2024-01-03T22:09:07.194Z,1.27
2024-01-03T22:11:35.374Z,0.77
2024-01-03T22:14:03.472Z,1.07
2024-01-03T22:16:31.489Z,0.80
2024-01-03T22:19:01.093Z,1.00
2024-01-03T22:21:29.365Z,1.00
2024-01-03T22:23:58.857Z,0.77
2024-01-03T22:26:27.841Z,0.80
2024-01-03T22:28:56.051Z,1.00
2024-01-03T22:31:24.351Z,0.80
2024-01-03T22:33:52.546Z,0.60
2024-01-03T22:36:22.084Z,0.67
2024-01-03T22:38:50.194Z,0.73
2024-01-03T22:41:18.271Z,1.00
2024-01-03T22:43:47.642Z,0.60
2024-01-03T22:46:15.671Z,0.77
2024-01-03T22:48:44.046Z,0.70
2024-01-03T22:51:12.013Z,0.60
2024-01-03T22:53:41.702Z,0.60
2024-01-03T22:56:09.759Z,0.73
2024-01-03T22:58:37.721Z,0.60
2024-01-03T23:01:06.146Z,0.40
2024-01-03T23:03:35.169Z,0.90
2024-01-03T23:06:03.300Z,0.70
2024-01-03T23:08:31.517Z,0.70
2024-01-03T23:11:01.204Z,0.70
2024-01-03T23:13:29.332Z,0.70
2024-01-03T23:15:57.262Z,0.80
2024-01-03T23:18:26.559Z,0.73
2024-01-03T23:20:55.079Z,0.63
2024-01-03T23:23:29.988Z,0.80
2024-01-03T23:26:05.731Z,0.77
2024-01-03T23:28:33.769Z,0.70
2024-01-03T23:31:01.948Z,0.60
2024-01-03T23:33:30.423Z,0.90
2024-01-03T23:35:58.526Z,0.70
2024-01-03T23:38:26.495Z,0.83
2024-01-03T23:40:54.496Z,0.80
2024-01-03T23:43:24.122Z,0.83
2024-01-03T23:45:52.067Z,0.70
2024-01-03T23:48:20.710Z,1.07
2024-01-03T23:50:49.263Z,0.97
2024-01-03T23:53:18.663Z,0.87
2024-01-03T23:55:46.882Z,0.93
2024-01-03T23:58:14.945Z,1.10
